createdAt,value
2018-12-31T00:02:02.950Z,95857.48
2018-12-31T00:04:32.487Z,95866.03
2018-12-31T00:07:01.864Z,95865.50
2018-12-31T00:09:31.184Z,95867.08
2018-12-31T00:12:00.606Z,95863.33
2018-12-31T00:14:30.240Z,95864.94
2018-12-31T00:16:59.588Z,95861.75
2018-12-31T00:19:28.947Z,95872.13
2018-12-31T00:21:58.247Z,95873.45
2018-12-31T00:24:27.585Z,95874.78
2018-12-31T00:26:56.948Z,95873.72
2018-12-31T00:29:26.305Z,95875.30
2018-12-31T00:31:55.696Z,95871.30
2018-12-31T00:34:25.031Z,95871.84
2018-12-31T00:36:54.374Z,95873.72
2018-12-31T00:39:23.679Z,95870.50
2018-12-31T00:41:52.965Z,95870.50
2018-12-31T00:44:22.295Z,95871.58
2018-12-31T00:46:51.581Z,95866.51
2018-12-31T00:49:20.915Z,95863.31
2018-12-31T00:51:50.249Z,95866.50
2018-12-31T00:54:19.798Z,95858.79
2018-12-31T00:56:49.125Z,95857.73
2018-12-31T00:59:18.425Z,95856.64
2018-12-31T01:01:47.883Z,95851.83
2018-12-31T01:04:17.213Z,95852.41
2018-12-31T01:06:46.504Z,95858.27
2018-12-31T01:09:15.804Z,95852.94
2018-12-31T01:11:45.105Z,95843.91
2018-12-31T01:14:14.459Z,95846.83
2018-12-31T01:16:43.815Z,95848.68
2018-12-31T01:19:13.198Z,95842.83
2018-12-31T01:21:42.532Z,95835.92
2018-12-31T01:24:11.946Z,95844.14
2018-12-31T01:26:41.250Z,95838.55
2018-12-31T01:29:10.601Z,95839.35
2018-12-31T01:31:39.928Z,95832.17
2018-12-31T01:34:09.249Z,95832.45
2018-12-31T01:36:38.592Z,95822.05
2018-12-31T01:39:07.920Z,95822.03
2018-12-31T01:41:37.260Z,95821.80
2018-12-31T01:44:06.591Z,95815.45
2018-12-31T01:46:35.944Z,95817.82
2018-12-31T01:49:05.233Z,95814.63
2018-12-31T01:51:34.560Z,95810.63
2018-12-31T01:54:03.906Z,95811.16
2018-12-31T01:56:33.221Z,95809.59
2018-12-31T01:59:02.655Z,95810.64
2018-12-31T02:01:31.971Z,95807.45
2018-12-31T02:04:01.284Z,95804.52
2018-12-31T02:06:30.621Z,95802.13
2018-12-31T02:09:00.020Z,95801.84
2018-12-31T02:11:29.366Z,95794.66
2018-12-31T02:13:58.785Z,95801.31
2018-12-31T02:16:28.117Z,95788.52
2018-12-31T02:18:57.446Z,95791.17
2018-12-31T02:21:26.813Z,95788.52
2018-12-31T02:23:56.155Z,95785.87
2018-12-31T02:26:25.463Z,95785.06
2018-12-31T02:28:54.802Z,95780.55
2018-12-31T02:31:24.257Z,95789.34
2018-12-31T02:33:53.655Z,95762.77
2018-12-31T02:36:22.996Z,95769.39
2018-12-31T02:38:52.288Z,95777.38
2018-12-31T02:41:21.649Z,95779.52
2018-12-31T02:43:51.017Z,95767.53
2018-12-31T02:46:20.454Z,95767.53
2018-12-31T02:48:49.781Z,95776.33
2018-12-31T02:51:19.094Z,95776.33
2018-12-31T02:53:48.440Z,95777.41
2018-12-31T02:56:17.747Z,95778.98
2018-12-31T02:58:47.078Z,95759.59
2018-12-31T03:01:16.431Z,95759.59
2018-12-31T03:03:45.744Z,95766.77
2018-12-31T03:06:15.186Z,95766.77
2018-12-31T03:08:44.486Z,95759.31
2018-12-31T03:11:13.831Z,95749.75
2018-12-31T03:13:43.175Z,95749.75
2018-12-31T03:16:12.505Z,95756.13
2018-12-31T03:18:41.979Z,95756.13
2018-12-31T03:21:11.313Z,95756.36
2018-12-31T03:23:40.663Z,95760.57
2018-12-31T03:26:10.094Z,95754.20
2018-12-31T03:28:39.419Z,95758.73
2018-12-31T03:31:08.753Z,95758.73
2018-12-31T03:33:38.067Z,95765.39
2018-12-31T03:36:07.452Z,95757.67
2018-12-31T03:38:36.711Z,95761.37
2018-12-31T03:41:06.098Z,95768.55
2018-12-31T03:43:35.415Z,95768.55
2018-12-31T03:46:04.827Z,95773.63
2018-12-31T03:48:34.235Z,95769.06
2018-12-31T03:51:03.588Z,95775.19
2018-12-31T03:53:32.874Z,95775.42
2018-12-31T03:56:02.182Z,95775.42
2018-12-31T03:58:31.470Z,95774.09
2018-12-31T04:01:00.857Z,95782.36
2018-12-31T04:03:30.216Z,95778.37
2018-12-31T04:05:59.706Z,95777.86
2018-12-31T04:08:29.092Z,95780.23
2018-12-31T04:10:58.412Z,95774.38
2018-12-31T04:13:27.771Z,95784.80
2018-12-31T04:15:57.122Z,95783.42
2018-12-31T04:18:26.511Z,95786.09
2018-12-31T04:20:55.946Z,95786.09
2018-12-31T04:23:25.509Z,95785.58
2018-12-31T04:25:54.824Z,95782.66
2018-12-31T04:28:24.172Z,95785.05
2018-12-31T04:30:53.543Z,95784.76
2018-12-31T04:33:22.942Z,95801.53
2018-12-31T04:35:52.500Z,95793.03
2018-12-31T04:38:21.883Z,95793.03
2018-12-31T04:40:51.308Z,95795.98
2018-12-31T04:43:20.646Z,95801.02
2018-12-31T04:45:50.116Z,95798.64
2018-12-31T04:48:19.413Z,95802.34
2018-12-31T04:50:48.776Z,95813.30
2018-12-31T04:53:18.135Z,95813.53
2018-12-31T04:55:47.586Z,95817.01
2018-12-31T04:58:23.044Z,95816.48
2018-12-31T05:00:47.996Z,95816.48
2018-12-31T05:03:17.413Z,95816.25
2018-12-31T05:05:46.736Z,95818.39
2018-12-31T05:08:16.171Z,95824.48
2018-12-31T05:10:45.584Z,95824.48
2018-12-31T05:13:15.123Z,95827.42
2018-12-31T05:15:44.808Z,95825.81
2018-12-31T05:18:14.340Z,95827.95
2018-12-31T05:20:43.831Z,95827.95
2018-12-31T05:23:13.196Z,95826.38
2018-12-31T05:25:42.663Z,95821.60
2018-12-31T05:28:12.107Z,95821.60
2018-12-31T05:30:41.491Z,95818.94
2018-12-31T05:33:10.924Z,95827.70
2018-12-31T05:35:40.402Z,95827.70
2018-12-31T05:38:09.822Z,95829.31
2018-12-31T05:40:39.236Z,95827.70
2018-12-31T05:43:08.650Z,95817.59
2018-12-31T05:45:38.002Z,95817.59
2018-12-31T05:48:07.499Z,95812.27
2018-12-31T05:50:37.246Z,95831.42
2018-12-31T05:53:06.717Z,95835.17
2018-12-31T05:55:36.152Z,95835.41
2018-12-31T05:58:05.653Z,95835.41
2018-12-31T06:00:36.298Z,95831.17
2018-12-31T06:03:05.811Z,95828.77
2018-12-31T06:05:35.377Z,95840.73
2018-12-31T06:08:04.943Z,95843.92
2018-12-31T06:10:34.415Z,95843.92
2018-12-31T06:13:03.856Z,95852.47
2018-12-31T06:15:34.208Z,95852.47
2018-12-31T06:18:04.091Z,95843.15
2018-12-31T06:20:35.890Z,95843.15
2018-12-31T06:23:07.880Z,95851.94
2018-12-31T06:25:37.764Z,95851.94
2018-12-31T06:28:08.414Z,95853.25
2018-12-31T06:30:39.060Z,95855.37
2018-12-31T06:33:09.073Z,95852.98
2018-12-31T06:35:38.696Z,95852.98
2018-12-31T06:38:08.180Z,95855.11
2018-12-31T06:40:37.617Z,95852.98
2018-12-31T06:43:07.094Z,95853.25
2018-12-31T06:45:36.733Z,95866.03
2018-12-31T06:48:06.103Z,95871.09
2018-12-31T06:50:35.738Z,95866.29
2018-12-31T06:53:05.110Z,95866.29
2018-12-31T06:55:34.870Z,95861.50
2018-12-31T06:58:04.256Z,95862.30
2018-12-31T07:00:34.063Z,95862.30
2018-12-31T07:03:03.748Z,95871.91
2018-12-31T07:05:33.126Z,95871.91
2018-12-31T07:08:02.499Z,95871.91
2018-12-31T07:10:32.217Z,95857.23
2018-12-31T07:13:01.551Z,95865.48
2018-12-31T07:15:30.977Z,95865.48
2018-12-31T07:18:00.398Z,95859.92
2018-12-31T07:20:29.746Z,95859.92
2018-12-31T07:23:00.532Z,95878.81
2018-12-31T07:25:30.180Z,95864.45
2018-12-31T07:27:59.506Z,95864.42
2018-12-31T07:30:28.923Z,95864.42
2018-12-31T07:32:58.519Z,95871.11
2018-12-31T07:35:27.970Z,95873.76
2018-12-31T07:37:57.470Z,95856.45
2018-12-31T07:40:27.752Z,95870.30
2018-12-31T07:42:57.383Z,95873.23
2018-12-31T07:45:27.018Z,95873.23
2018-12-31T07:47:56.540Z,95871.62
2018-12-31T07:50:26.098Z,95867.11
2018-12-31T07:52:55.563Z,95877.73
2018-12-31T07:55:24.990Z,95877.73
2018-12-31T07:57:54.690Z,95869.18
2018-12-31T08:00:26.456Z,95867.60
2018-12-31T08:02:57.482Z,95872.92
2018-12-31T08:05:27.797Z,95872.64
2018-12-31T08:07:57.594Z,95873.16
2018-12-31T08:10:27.396Z,95875.00
2018-12-31T08:12:56.795Z,95867.08
2018-12-31T08:15:26.182Z,95880.92
2018-12-31T08:17:55.612Z,95879.05
2018-12-31T08:20:24.944Z,95881.73
2018-12-31T08:22:54.278Z,95886.25
2018-12-31T08:25:23.915Z,95889.20
2018-12-31T08:27:53.322Z,95886.48
2018-12-31T08:30:23.739Z,95884.05
2018-12-31T08:32:53.819Z,95887.30
2018-12-31T08:35:23.189Z,95881.16
2018-12-31T08:37:52.529Z,95883.30
2018-12-31T08:40:22.178Z,95888.11
2018-12-31T08:42:51.556Z,95891.05
2018-12-31T08:45:20.947Z,95883.06
2018-12-31T08:47:50.404Z,95886.78
2018-12-31T08:50:19.775Z,95891.30
2018-12-31T08:52:49.374Z,95880.64
2018-12-31T08:55:18.882Z,95878.54
2018-12-31T08:57:48.244Z,95884.10
2018-12-31T09:00:17.696Z,95880.91
2018-12-31T09:02:47.060Z,95872.31
2018-12-31T09:05:16.402Z,95872.03
2018-12-31T09:07:45.758Z,95874.39
2018-12-31T09:10:15.077Z,95871.98
2018-12-31T09:12:44.440Z,95872.52
2018-12-31T09:15:14.738Z,95875.97
2018-12-31T09:17:44.221Z,95870.12
2018-12-31T09:20:13.658Z,95867.80
2018-12-31T09:22:43.055Z,95867.80
2018-12-31T09:25:12.390Z,95869.06
2018-12-31T09:27:42.823Z,95871.19
2018-12-31T09:30:14.599Z,95871.19
2018-12-31T09:32:44.189Z,95863.20
2018-12-31T09:35:13.699Z,95856.83
2018-12-31T09:37:43.136Z,95856.83
2018-12-31T09:40:12.790Z,95854.95
2018-12-31T09:42:42.279Z,95851.30
2018-12-31T09:45:11.727Z,95859.19
2018-12-31T09:47:41.246Z,95852.88
2018-12-31T09:50:11.810Z,95851.64
2018-12-31T09:52:41.376Z,95849.21
2018-12-31T09:55:11.248Z,95857.95
2018-12-31T09:58:25.627Z,95841.73
2018-12-31T10:00:53.231Z,95843.31
2018-12-31T10:03:22.693Z,95841.09
2018-12-31T10:05:52.133Z,95850.10
2018-12-31T10:08:21.718Z,95843.38
2018-12-31T10:10:51.143Z,95841.67
2018-12-31T10:13:21.940Z,95842.13
2018-12-31T10:15:51.665Z,95836.02
2018-12-31T10:18:21.082Z,95829.60
2018-12-31T10:20:50.472Z,95831.42
2018-12-31T10:23:19.845Z,95830.61
2018-12-31T10:25:49.420Z,95827.92
2018-12-31T10:28:19.026Z,95823.45
2018-12-31T10:30:48.399Z,95825.73
2018-12-31T10:33:18.073Z,95819.91
2018-12-31T10:35:50.705Z,95822.52
2018-12-31T10:38:31.085Z,95818.99
2018-12-31T10:41:05.277Z,95817.11
2018-12-31T10:43:41.813Z,95809.48
2018-12-31T10:46:18.555Z,95812.80
2018-12-31T10:48:53.701Z,95814.31
2018-12-31T10:51:31.150Z,95809.00
2018-12-31T10:54:07.932Z,95804.53
2018-12-31T10:56:44.428Z,95807.84
2018-12-31T10:59:14.282Z,95805.50
2018-12-31T11:01:45.190Z,95810.22
2018-12-31T11:04:16.951Z,95800.06
2018-12-31T11:06:47.062Z,95797.91
2018-12-31T11:09:17.495Z,95789.39
2018-12-31T11:11:47.512Z,95790.94
2018-12-31T11:14:17.278Z,95781.21
2018-12-31T11:16:47.551Z,95782.05
2018-12-31T11:19:17.158Z,95779.52
2018-12-31T11:21:47.196Z,95772.91
2018-12-31T11:24:17.494Z,95778.47
2018-12-31T11:26:46.970Z,95773.86
2018-12-31T11:29:17.036Z,95773.42
2018-12-31T11:31:47.509Z,95771.53
2018-12-31T11:34:17.248Z,95774.28
2018-12-31T11:36:47.735Z,95774.28
2018-12-31T11:39:17.617Z,95773.30
2018-12-31T11:41:48.207Z,95771.66
2018-12-31T11:44:25.693Z,95772.91
2018-12-31T11:46:56.041Z,95770.98
2018-12-31T11:49:25.416Z,95768.55
2018-12-31T11:51:54.804Z,95771.02
2018-12-31T11:54:24.133Z,95772.89
2018-12-31T11:56:53.501Z,95775.91
2018-12-31T11:59:22.910Z,95769.14
2018-12-31T12:01:52.218Z,95775.16
2018-12-31T12:04:21.608Z,95768.45
2018-12-31T12:06:50.949Z,95767.81
2018-12-31T12:09:20.308Z,95767.06
2018-12-31T12:11:49.700Z,95767.34
2018-12-31T12:14:18.991Z,95775.48
2018-12-31T12:16:49.322Z,95776.80
2018-12-31T12:19:24.898Z,95778.08
2018-12-31T12:21:55.970Z,95778.83
2018-12-31T12:24:25.945Z,95778.87
2018-12-31T12:26:55.685Z,95782.95
2018-12-31T12:29:27.565Z,95779.88
2018-12-31T12:31:57.113Z,95777.83
2018-12-31T12:34:26.995Z,95784.53
2018-12-31T12:36:56.514Z,95780.75
2018-12-31T12:39:26.416Z,95782.04
2018-12-31T12:41:55.812Z,95786.13
2018-12-31T12:44:26.187Z,95785.92
2018-12-31T12:46:56.844Z,95788.95
2018-12-31T12:49:26.435Z,95788.38
2018-12-31T12:51:56.027Z,95786.55
2018-12-31T12:54:25.622Z,95783.38
2018-12-31T12:56:55.293Z,95789.84
2018-12-31T12:59:24.876Z,95782.64
2018-12-31T13:01:54.324Z,95790.59
2018-12-31T13:04:23.762Z,95786.79
2018-12-31T13:06:53.225Z,95787.67
2018-12-31T13:09:22.739Z,95791.63
2018-12-31T13:11:56.628Z,95787.89
2018-12-31T13:14:26.523Z,95794.01
2018-12-31T13:16:56.121Z,95801.67
2018-12-31T13:19:25.629Z,95796.56
2018-12-31T13:21:55.867Z,95800.66
2018-12-31T13:24:25.572Z,95797.24
2018-12-31T13:26:54.927Z,95798.28
2018-12-31T13:29:24.289Z,95799.95
2018-12-31T13:31:53.654Z,95804.47
2018-12-31T13:34:23.025Z,95803.92
2018-12-31T13:36:52.429Z,95805.52
2018-12-31T13:39:21.777Z,95654.97
2018-12-31T13:41:51.119Z,95802.87
2018-12-31T13:44:20.485Z,95808.17
2018-12-31T13:46:49.833Z,95811.66
2018-12-31T13:49:19.187Z,95816.45
2018-12-31T13:51:48.570Z,95816.50
2018-12-31T13:54:17.923Z,95812.48
2018-12-31T13:56:47.305Z,95821.02
2018-12-31T13:59:16.679Z,95817.32
2018-12-31T14:01:46.318Z,95814.14
2018-12-31T14:04:15.780Z,95821.94
2018-12-31T14:06:45.135Z,95819.58
2018-12-31T14:09:14.515Z,95812.59
2018-12-31T14:11:43.950Z,95815.44
2018-12-31T14:14:13.538Z,95819.66
2018-12-31T14:16:42.927Z,95821.86
2018-12-31T14:19:12.311Z,95818.16
2018-12-31T14:21:42.921Z,95819.99
2018-12-31T14:24:12.592Z,95822.35
2018-12-31T14:26:42.313Z,95826.75
2018-12-31T14:29:11.772Z,95820.90
2018-12-31T14:31:41.224Z,95826.98
2018-12-31T14:34:10.576Z,95823.75
2018-12-31T14:36:40.187Z,95827.67
2018-12-31T14:39:09.617Z,95827.00
2018-12-31T14:41:38.990Z,95825.41
2018-12-31T14:44:08.319Z,95822.00
2018-12-31T14:46:37.748Z,95828.40
2018-12-31T14:49:07.287Z,95823.33
2018-12-31T14:51:36.643Z,95827.66
2018-12-31T14:54:06.063Z,95835.70
2018-12-31T14:56:35.426Z,95834.74
2018-12-31T14:59:04.803Z,95842.32
2018-12-31T15:01:34.659Z,95844.02
2018-12-31T15:04:04.198Z,95840.78
2018-12-31T15:06:33.594Z,95845.63
2018-12-31T15:09:03.621Z,95851.69
2018-12-31T15:11:33.014Z,95686.70
2018-12-31T15:14:02.458Z,95852.08
2018-12-31T15:16:31.823Z,95854.23
2018-12-31T15:19:01.159Z,95851.20
2018-12-31T15:21:30.492Z,95847.78
2018-12-31T15:23:59.880Z,95845.64
2018-12-31T15:26:29.256Z,95848.83
2018-12-31T15:28:58.603Z,95854.27
2018-12-31T15:31:27.954Z,95857.14
2018-12-31T15:33:57.283Z,95861.03
2018-12-31T15:36:26.682Z,95864.78
2018-12-31T15:38:56.118Z,95865.48
2018-12-31T15:41:25.591Z,95871.47
2018-12-31T15:43:55.012Z,95870.89
2018-12-31T15:46:24.316Z,95870.73
2018-12-31T15:48:53.685Z,95871.23
2018-12-31T15:51:23.113Z,95872.05
2018-12-31T15:53:52.609Z,95875.30
2018-12-31T15:56:22.421Z,95885.25
2018-12-31T15:58:51.777Z,95881.25
2018-12-31T16:01:21.355Z,95886.92
2018-12-31T16:03:50.892Z,95892.86
2018-12-31T16:06:20.393Z,95902.20
2018-12-31T16:08:49.773Z,95900.11
2018-12-31T16:11:19.844Z,95905.15
2018-12-31T16:13:49.394Z,95891.30
2018-12-31T16:16:19.684Z,95902.69
2018-12-31T16:18:50.632Z,95909.70
2018-12-31T16:21:21.197Z,95909.70
2018-12-31T16:23:51.744Z,95907.12
2018-12-31T16:26:23.108Z,95418.25
2018-12-31T16:28:54.324Z,95917.73
2018-12-31T16:31:24.254Z,95917.20
2018-12-31T16:33:53.849Z,95919.88
2018-12-31T16:36:23.824Z,95918.56
2018-12-31T16:38:53.681Z,95922.56
2018-12-31T16:41:25.472Z,95931.13
2018-12-31T16:44:00.474Z,95927.64
2018-12-31T16:46:31.473Z,95933.23
2018-12-31T16:49:01.159Z,95934.84
2018-12-31T16:51:30.425Z,95942.01
2018-12-31T16:53:59.788Z,95948.64
2018-12-31T16:56:29.103Z,95944.07
2018-12-31T16:58:58.423Z,95948.67
2018-12-31T17:01:27.759Z,95960.15
2018-12-31T17:03:57.061Z,95955.09
2018-12-31T17:06:26.422Z,95959.38
2018-12-31T17:08:55.771Z,95958.02
2018-12-31T17:11:25.119Z,95955.85
2018-12-31T17:13:54.512Z,95963.25
2018-12-31T17:16:23.840Z,95953.96
2018-12-31T17:18:53.150Z,95962.00
2018-12-31T17:21:22.496Z,95969.34
2018-12-31T17:23:51.851Z,95977.59
2018-12-31T17:26:21.155Z,95978.19
2018-12-31T17:28:50.480Z,95973.67
2018-12-31T17:31:19.941Z,95981.11
2018-12-31T17:33:49.271Z,95980.59
2018-12-31T17:36:18.638Z,95985.92
2018-12-31T17:38:49.025Z,95994.24
2018-12-31T17:41:18.452Z,95998.78
2018-12-31T17:43:47.816Z,95997.50
2018-12-31T17:46:17.205Z,95995.07
2018-12-31T17:48:46.558Z,95997.23
2018-12-31T17:51:15.890Z,96002.86
2018-12-31T17:53:45.230Z,96003.14
2018-12-31T17:56:14.508Z,95998.86
2018-12-31T17:58:43.818Z,96001.81
2018-12-31T18:01:13.103Z,95997.24
2018-12-31T18:03:42.414Z,96010.05
2018-12-31T18:06:11.727Z,96005.53
2018-12-31T18:08:41.156Z,96006.34
2018-12-31T18:11:10.514Z,96003.67
2018-12-31T18:13:39.871Z,96003.69
2018-12-31T18:16:09.301Z,96004.21
2018-12-31T18:18:38.614Z,96001.53
2018-12-31T18:21:07.980Z,96005.30
2018-12-31T18:23:37.424Z,96002.11
2018-12-31T18:26:06.759Z,96004.22
2018-12-31T18:28:36.045Z,96007.95
2018-12-31T18:31:05.369Z,96013.02
2018-12-31T18:33:34.726Z,96009.55
2018-12-31T18:36:04.275Z,96009.54
2018-12-31T18:38:34.011Z,96007.95
2018-12-31T18:41:03.331Z,96018.91
2018-12-31T18:43:32.659Z,96015.97
2018-12-31T18:46:02.090Z,96013.58
2018-12-31T18:48:31.437Z,96007.69
2018-12-31T18:51:01.176Z,96013.06
2018-12-31T18:53:30.573Z,96013.06
2018-12-31T18:55:59.871Z,96014.35
2018-12-31T18:58:29.188Z,96014.35
2018-12-31T19:00:58.526Z,96010.88
2018-12-31T19:03:28.053Z,96016.77
2018-12-31T19:05:57.444Z,96006.92
2018-12-31T19:08:26.746Z,96009.31
2018-12-31T19:10:56.085Z,96009.59
2018-12-31T19:13:25.421Z,96006.92
2018-12-31T19:15:55.172Z,96008.25
2018-12-31T19:18:24.528Z,96017.55
2018-12-31T19:20:53.829Z,96017.55
2018-12-31T19:23:23.178Z,96018.62
2018-12-31T19:25:52.519Z,96015.96
2018-12-31T19:28:22.113Z,96017.30
2018-12-31T19:30:51.508Z,96019.15
2018-12-31T19:33:20.865Z,96019.40
2018-12-31T19:35:50.191Z,96014.63
2018-12-31T19:38:19.530Z,96012.48
2018-12-31T19:40:49.154Z,96007.66
2018-12-31T19:43:19.420Z,96018.10
2018-12-31T19:45:48.791Z,96025.26
2018-12-31T19:48:18.159Z,96032.20
2018-12-31T19:50:47.456Z,96036.20
2018-12-31T19:53:17.091Z,96046.63
2018-12-31T19:55:46.414Z,96033.30
2018-12-31T19:58:15.737Z,96028.25
2018-12-31T20:00:45.109Z,96028.77
2018-12-31T20:03:14.453Z,96025.83
2018-12-31T20:05:44.221Z,96026.62
2018-12-31T20:08:13.590Z,96021.55
2018-12-31T20:10:42.938Z,96031.72
2018-12-31T20:13:12.259Z,96033.85
2018-12-31T20:15:48.401Z,96031.72
2018-12-31T20:18:12.648Z,96033.05
2018-12-31T20:20:41.944Z,96027.97
2018-12-31T20:23:11.303Z,96032.49
2018-12-31T20:25:40.621Z,96032.77
2018-12-31T20:28:10.018Z,96031.69
2018-12-31T20:30:39.632Z,96038.10
2018-12-31T20:33:08.961Z,96036.21
2018-12-31T20:35:38.309Z,96031.97
2018-12-31T20:38:07.586Z,96034.62
2018-12-31T20:40:36.945Z,96033.58
2018-12-31T20:43:06.285Z,96030.63
2018-12-31T20:45:35.612Z,96042.91
2018-12-31T20:48:04.904Z,96041.05
2018-12-31T20:50:34.265Z,96042.38
2018-12-31T20:53:03.640Z,96041.56
2018-12-31T20:55:32.964Z,96047.41
2018-12-31T20:58:02.784Z,96039.98
2018-12-31T21:00:32.135Z,96040.77
2018-12-31T21:03:01.507Z,96036.77
2018-12-31T21:05:30.831Z,96043.17
2018-12-31T21:08:00.191Z,96030.64
2018-12-31T21:10:29.985Z,96033.56
2018-12-31T21:12:59.318Z,96032.51
2018-12-31T21:15:28.746Z,96034.09
2018-12-31T21:17:58.106Z,96029.84
2018-12-31T21:20:27.499Z,96026.64
2018-12-31T21:22:57.297Z,96034.63
2018-12-31T21:25:26.636Z,96037.03
2018-12-31T21:27:55.963Z,96039.67
2018-12-31T21:30:25.342Z,96043.13
2018-12-31T21:32:54.714Z,96038.86
2018-12-31T21:35:24.464Z,96042.27
2018-12-31T21:37:53.727Z,96044.86
2018-12-31T21:40:23.032Z,96044.86
2018-12-31T21:42:52.395Z,96048.08
2018-12-31T21:45:21.736Z,96048.08
2018-12-31T21:47:51.129Z,96039.27
2018-12-31T21:50:20.468Z,96048.60
2018-12-31T21:52:49.773Z,96048.60
2018-12-31T21:55:19.150Z,96045.47
2018-12-31T21:57:48.515Z,96045.47
2018-12-31T22:00:17.888Z,96051.59
2018-12-31T22:02:47.210Z,96040.45
2018-12-31T22:05:16.622Z,96040.45
2018-12-31T22:07:46.025Z,96051.13
2018-12-31T22:10:15.391Z,96051.13
2018-12-31T22:12:45.802Z,96048.48
2018-12-31T22:15:15.770Z,96048.48
2018-12-31T22:17:45.178Z,96051.38
2018-12-31T22:20:14.945Z,96061.48
2018-12-31T22:22:44.283Z,96061.48
2018-12-31T22:25:13.639Z,96066.22
2018-12-31T22:27:43.120Z,96066.22
2018-12-31T22:30:12.487Z,96065.88
2018-12-31T22:32:41.823Z,96067.45
2018-12-31T22:35:11.167Z,96070.03
2018-12-31T22:37:40.527Z,96067.03
2018-12-31T22:40:09.812Z,96067.03
2018-12-31T22:42:39.137Z,96071.56
2018-12-31T22:45:08.632Z,96068.91
2018-12-31T22:47:38.003Z,96068.11
2018-12-31T22:50:09.627Z,96071.34
2018-12-31T22:52:38.954Z,96073.47
2018-12-31T22:55:08.315Z,96075.31
2018-12-31T22:57:37.688Z,96075.52
2018-12-31T23:00:09.948Z,96074.48
2018-12-31T23:02:39.649Z,96076.63
2018-12-31T23:05:11.020Z,96083.21
2018-12-31T23:07:40.379Z,96086.64
2018-12-31T23:10:10.445Z,96084.25
2018-12-31T23:12:39.779Z,96083.69
2018-12-31T23:15:13.118Z,96095.64
2018-12-31T23:17:42.458Z,96086.61
2018-12-31T23:20:12.562Z,96089.27
2018-12-31T23:22:41.900Z,96098.52
2018-12-31T23:25:11.231Z,96102.19
2018-12-31T23:27:40.543Z,96099.55
2018-12-31T23:30:10.393Z,96102.47
2018-12-31T23:32:39.817Z,96103.80
2018-12-31T23:35:09.598Z,95930.59
2018-12-31T23:37:41.314Z,96103.22
2018-12-31T23:40:10.849Z,96109.04
2018-12-31T23:42:40.219Z,96115.88
2018-12-31T23:45:10.767Z,96111.67
2018-12-31T23:47:40.097Z,96115.28
2018-12-31T23:50:10.586Z,96114.39
2018-12-31T23:52:39.921Z,96116.73
2018-12-31T23:55:09.637Z,96116.95
2018-12-31T23:57:39.008Z,96121.77
